sensor_id;sensor_type;location;lat;lon;timestamp;temperature;humidity
13198;DHT22;6664;52.514;13.440;2022-08-20T00:01:16;20.90;99.90
13198;DHT22;6664;52.514;13.440;2022-08-20T00:03:43;21.00;99.90
13198;DHT22;6664;52.514;13.440;2022-08-20T00:06:22;20.90;99.90
13198;DHT22;6664;52.514;13.440;2022-08-20T00:08:49;20.80;99.90
13198;DHT22;6664;52.514;13.440;2022-08-20T00:11:20;20.80;99.90
13198;DHT22;6664;52.514;13.440;2022-08-20T00:13:51;20.80;99.90
13198;DHT22;6664;52.514;13.440;2022-08-20T00:16:20;20.70;99.90
13198;DHT22;6664;52.514;13.440;2022-08-20T00:18:47;20.60;99.90
13198;DHT22;6664;52.514;13.440;2022-08-20T00:21:18;20.60;99.90
13198;DHT22;6664;52.514;13.440;2022-08-20T00:23:51;20.60;99.90
13198;DHT22;6664;52.514;13.440;2022-08-20T00:26:19;20.70;99.90
13198;DHT22;6664;52.514;13.440;2022-08-20T00:28:46;20.70;99.90
13198;DHT22;6664;52.514;13.440;2022-08-20T00:31:15;20.80;99.90
13198;DHT22;6664;52.514;13.440;2022-08-20T00:33:44;20.70;99.90
13198;DHT22;6664;52.514;13.440;2022-08-20T00:36:11;20.70;99.90
13198;DHT22;6664;52.514;13.440;2022-08-20T00:38:43;20.70;99.90
13198;DHT22;6664;52.514;13.440;2022-08-20T00:41:15;20.70;99.90
13198;DHT22;6664;52.514;13.440;2022-08-20T00:43:46;20.70;99.90
13198;DHT22;6664;52.514;13.440;2022-08-20T00:48:45;20.60;99.90
13198;DHT22;6664;52.514;13.440;2022-08-20T00:56:46;20.70;99.90
13198;DHT22;6664;52.514;13.440;2022-08-20T00:59:19;20.60;99.90
13198;DHT22;6664;52.514;13.440;2022-08-20T01:01:48;20.50;99.90
13198;DHT22;6664;52.514;13.440;2022-08-20T01:04:25;20.60;99.90
13198;DHT22;6664;52.514;13.440;2022-08-20T01:06:53;20.40;99.90
13198;DHT22;6664;52.514;13.440;2022-08-20T01:09:21;20.50;99.90
13198;DHT22;6664;52.514;13.440;2022-08-20T01:12:09;20.50;99.90
13198;DHT22;6664;52.514;13.440;2022-08-20T01:14:40;20.40;99.90
13198;DHT22;6664;52.514;13.440;2022-08-20T01:17:14;20.40;99.90
13198;DHT22;6664;52.514;13.440;2022-08-20T01:19:48;20.40;99.90
13198;DHT22;6664;52.514;13.440;2022-08-20T01:22:23;20.40;99.90
13198;DHT22;6664;52.514;13.440;2022-08-20T01:25:16;20.40;99.90
13198;DHT22;6664;52.514;13.440;2022-08-20T01:27:48;20.40;99.90
13198;DHT22;6664;52.514;13.440;2022-08-20T01:30:24;20.40;99.90
13198;DHT22;6664;52.514;13.440;2022-08-20T01:32:52;20.40;99.90
13198;DHT22;6664;52.514;13.440;2022-08-20T01:35:21;20.40;99.90
13198;DHT22;6664;52.514;13.440;2022-08-20T01:37:51;20.50;99.90
13198;DHT22;6664;52.514;13.440;2022-08-20T01:40:35;20.40;99.90
13198;DHT22;6664;52.514;13.440;2022-08-20T01:43:07;20.40;99.90
13198;DHT22;6664;52.514;13.440;2022-08-20T01:45:38;20.40;99.90
13198;DHT22;6664;52.514;13.440;2022-08-20T01:48:05;20.40;99.90
13198;DHT22;6664;52.514;13.440;2022-08-20T01:50:36;20.40;99.90
13198;DHT22;6664;52.514;13.440;2022-08-20T01:53:24;20.40;99.90
13198;DHT22;6664;52.514;13.440;2022-08-20T01:55:52;20.40;99.90
13198;DHT22;6664;52.514;13.440;2022-08-20T01:58:19;20.40;99.90
13198;DHT22;6664;52.514;13.440;2022-08-20T02:00:46;20.30;99.90
13198;DHT22;6664;52.514;13.440;2022-08-20T02:03:13;20.30;99.90
13198;DHT22;6664;52.514;13.440;2022-08-20T02:05:40;20.40;99.90
13198;DHT22;6664;52.514;13.440;2022-08-20T02:08:07;20.30;99.90
13198;DHT22;6664;52.514;13.440;2022-08-20T02:10:35;20.30;99.90
13198;DHT22;6664;52.514;13.440;2022-08-20T02:13:06;20.30;99.90
13198;DHT22;6664;52.514;13.440;2022-08-20T02:15:36;20.30;99.90
13198;DHT22;6664;52.514;13.440;2022-08-20T02:18:11;20.40;99.90
13198;DHT22;6664;52.514;13.440;2022-08-20T02:20:42;20.30;99.90
13198;DHT22;6664;52.514;13.440;2022-08-20T02:23:10;20.20;99.90
13198;DHT22;6664;52.514;13.440;2022-08-20T02:25:42;20.20;99.90
13198;DHT22;6664;52.514;13.440;2022-08-20T02:28:14;20.00;99.90
13198;DHT22;6664;52.514;13.440;2022-08-20T02:30:46;19.90;99.90
13198;DHT22;6664;52.514;13.440;2022-08-20T02:33:17;19.90;99.90
13198;DHT22;6664;52.514;13.440;2022-08-20T02:35:47;19.80;99.90
13198;DHT22;6664;52.514;13.440;2022-08-20T02:38:19;19.70;99.90
13198;DHT22;6664;52.514;13.440;2022-08-20T02:40:49;19.70;99.90
13198;DHT22;6664;52.514;13.440;2022-08-20T02:43:16;19.60;99.90
13198;DHT22;6664;52.514;13.440;2022-08-20T02:45:46;19.60;99.90
13198;DHT22;6664;52.514;13.440;2022-08-20T02:48:16;19.60;99.90
13198;DHT22;6664;52.514;13.440;2022-08-20T02:50:56;19.60;99.90
13198;DHT22;6664;52.514;13.440;2022-08-20T02:53:25;19.60;99.90
13198;DHT22;6664;52.514;13.440;2022-08-20T02:55:52;19.60;99.90
13198;DHT22;6664;52.514;13.440;2022-08-20T02:58:19;19.60;99.90
13198;DHT22;6664;52.514;13.440;2022-08-20T03:00:49;19.60;99.90
13198;DHT22;6664;52.514;13.440;2022-08-20T03:03:16;19.60;99.90
13198;DHT22;6664;52.514;13.440;2022-08-20T03:05:53;19.70;99.90
13198;DHT22;6664;52.514;13.440;2022-08-20T03:08:21;19.60;99.90
13198;DHT22;6664;52.514;13.440;2022-08-20T03:10:49;19.70;99.90
13198;DHT22;6664;52.514;13.440;2022-08-20T03:13:20;19.80;99.90
13198;DHT22;6664;52.514;13.440;2022-08-20T03:15:53;19.80;99.90
13198;DHT22;6664;52.514;13.440;2022-08-20T03:18:29;19.80;99.90
13198;DHT22;6664;52.514;13.440;2022-08-20T03:20:57;19.70;99.90
13198;DHT22;6664;52.514;13.440;2022-08-20T03:23:27;19.80;99.90
13198;DHT22;6664;52.514;13.440;2022-08-20T03:25:54;19.70;99.90
13198;DHT22;6664;52.514;13.440;2022-08-20T03:28:23;19.80;99.90
13198;DHT22;6664;52.514;13.440;2022-08-20T03:30:53;19.80;99.90
13198;DHT22;6664;52.514;13.440;2022-08-20T03:33:26;19.80;99.90
13198;DHT22;6664;52.514;13.440;2022-08-20T03:35:55;19.90;99.90
13198;DHT22;6664;52.514;13.440;2022-08-20T03:38:25;19.90;99.90
13198;DHT22;6664;52.514;13.440;2022-08-20T03:41:00;19.90;99.90
13198;DHT22;6664;52.514;13.440;2022-08-20T03:43:27;19.90;99.90
13198;DHT22;6664;52.514;13.440;2022-08-20T03:45:54;19.90;99.90
13198;DHT22;6664;52.514;13.440;2022-08-20T03:48:21;20.00;99.90
13198;DHT22;6664;52.514;13.440;2022-08-20T03:50:50;19.80;99.90
13198;DHT22;6664;52.514;13.440;2022-08-20T03:53:18;19.90;99.90
13198;DHT22;6664;52.514;13.440;2022-08-20T03:55:47;19.90;99.90
13198;DHT22;6664;52.514;13.440;2022-08-20T03:58:21;20.00;99.90
13198;DHT22;6664;52.514;13.440;2022-08-20T04:01:04;20.00;99.90
13198;DHT22;6664;52.514;13.440;2022-08-20T04:03:32;20.00;99.90
13198;DHT22;6664;52.514;13.440;2022-08-20T04:06:03;20.00;99.90
13198;DHT22;6664;52.514;13.440;2022-08-20T04:08:33;20.00;99.90
13198;DHT22;6664;52.514;13.440;2022-08-20T04:11:02;20.00;99.90
13198;DHT22;6664;52.514;13.440;2022-08-20T04:13:32;20.00;99.90
13198;DHT22;6664;52.514;13.440;2022-08-20T04:16:03;20.00;99.90
13198;DHT22;6664;52.514;13.440;2022-08-20T04:18:38;20.00;99.90
13198;DHT22;6664;52.514;13.440;2022-08-20T04:21:05;20.00;99.90
13198;DHT22;6664;52.514;13.440;2022-08-20T04:23:32;20.00;99.90
13198;DHT22;6664;52.514;13.440;2022-08-20T04:25:58;20.00;99.90
13198;DHT22;6664;52.514;13.440;2022-08-20T04:28:28;20.10;99.90
13198;DHT22;6664;52.514;13.440;2022-08-20T04:30:58;20.10;99.90
13198;DHT22;6664;52.514;13.440;2022-08-20T04:33:26;20.10;99.90
13198;DHT22;6664;52.514;13.440;2022-08-20T04:36:03;20.00;99.90
13198;DHT22;6664;52.514;13.440;2022-08-20T04:38:32;20.10;99.90
13198;DHT22;6664;52.514;13.440;2022-08-20T04:41:19;20.10;99.90
13198;DHT22;6664;52.514;13.440;2022-08-20T04:43:49;20.10;99.90
13198;DHT22;6664;52.514;13.440;2022-08-20T04:46:17;20.10;99.90
13198;DHT22;6664;52.514;13.440;2022-08-20T04:48:44;20.10;99.90
13198;DHT22;6664;52.514;13.440;2022-08-20T04:51:16;20.20;99.90
13198;DHT22;6664;52.514;13.440;2022-08-20T04:53:44;20.20;99.90
13198;DHT22;6664;52.514;13.440;2022-08-20T04:56:18;20.20;99.90
13198;DHT22;6664;52.514;13.440;2022-08-20T04:58:49;20.30;99.90
13198;DHT22;6664;52.514;13.440;2022-08-20T05:01:16;20.30;99.90
13198;DHT22;6664;52.514;13.440;2022-08-20T05:03:43;20.30;99.90
13198;DHT22;6664;52.514;13.440;2022-08-20T05:06:13;20.40;99.90
13198;DHT22;6664;52.514;13.440;2022-08-20T05:08:42;20.40;99.90
13198;DHT22;6664;52.514;13.440;2022-08-20T05:11:12;20.40;99.90
13198;DHT22;6664;52.514;13.440;2022-08-20T05:14:02;20.40;99.90
13198;DHT22;6664;52.514;13.440;2022-08-20T05:16:29;20.50;99.90
13198;DHT22;6664;52.514;13.440;2022-08-20T05:18:56;20.40;99.90
13198;DHT22;6664;52.514;13.440;2022-08-20T05:21:26;20.40;99.90
13198;DHT22;6664;52.514;13.440;2022-08-20T05:23:55;20.30;99.90
13198;DHT22;6664;52.514;13.440;2022-08-20T05:26:22;20.30;99.90
13198;DHT22;6664;52.514;13.440;2022-08-20T05:28:51;20.40;99.90
13198;DHT22;6664;52.514;13.440;2022-08-20T05:31:25;20.30;99.90
13198;DHT22;6664;52.514;13.440;2022-08-20T05:34:10;20.40;99.90
13198;DHT22;6664;52.514;13.440;2022-08-20T05:36:41;20.40;99.90
13198;DHT22;6664;52.514;13.440;2022-08-20T05:39:09;20.50;99.90
13198;DHT22;6664;52.514;13.440;2022-08-20T05:41:39;20.40;99.90
13198;DHT22;6664;52.514;13.440;2022-08-20T05:44:08;20.40;99.90
13198;DHT22;6664;52.514;13.440;2022-08-20T05:46:42;20.40;99.90
13198;DHT22;6664;52.514;13.440;2022-08-20T05:49:11;20.40;99.90
13198;DHT22;6664;52.514;13.440;2022-08-20T05:51:41;20.40;99.90
13198;DHT22;6664;52.514;13.440;2022-08-20T05:54:08;20.40;99.90
13198;DHT22;6664;52.514;13.440;2022-08-20T05:56:38;20.50;99.90
13198;DHT22;6664;52.514;13.440;2022-08-20T05:59:08;20.50;99.90
13198;DHT22;6664;52.514;13.440;2022-08-20T06:01:40;20.50;99.90
13198;DHT22;6664;52.514;13.440;2022-08-20T06:04:09;20.50;99.90
13198;DHT22;6664;52.514;13.440;2022-08-20T06:07:02;20.40;99.90
13198;DHT22;6664;52.514;13.440;2022-08-20T06:09:29;20.50;99.90
13198;DHT22;6664;52.514;13.440;2022-08-20T06:12:00;20.50;99.90
13198;DHT22;6664;52.514;13.440;2022-08-20T06:14:30;20.40;99.90
13198;DHT22;6664;52.514;13.440;2022-08-20T06:17:05;20.50;99.90
13198;DHT22;6664;52.514;13.440;2022-08-20T06:19:36;20.60;99.90
13198;DHT22;6664;52.514;13.440;2022-08-20T06:22:05;20.50;99.90
13198;DHT22;6664;52.514;13.440;2022-08-20T06:24:46;20.40;99.90
13198;DHT22;6664;52.514;13.440;2022-08-20T06:27:14;20.40;99.90
13198;DHT22;6664;52.514;13.440;2022-08-20T06:29:41;20.40;99.90
13198;DHT22;6664;52.514;13.440;2022-08-20T06:32:09;20.50;99.90
13198;DHT22;6664;52.514;13.440;2022-08-20T06:34:36;20.60;99.90
13198;DHT22;6664;52.514;13.440;2022-08-20T06:37:14;20.60;99.90
13198;DHT22;6664;52.514;13.440;2022-08-20T06:39:42;20.60;99.90
13198;DHT22;6664;52.514;13.440;2022-08-20T06:42:09;20.70;99.90
13198;DHT22;6664;52.514;13.440;2022-08-20T06:44:36;20.60;99.90
13198;DHT22;6664;52.514;13.440;2022-08-20T06:47:03;20.60;99.90
13198;DHT22;6664;52.514;13.440;2022-08-20T06:49:34;20.60;99.90
13198;DHT22;6664;52.514;13.440;2022-08-20T06:52:03;20.60;99.90
13198;DHT22;6664;52.514;13.440;2022-08-20T06:54:30;20.70;99.90
13198;DHT22;6664;52.514;13.440;2022-08-20T06:57:00;20.70;99.90
13198;DHT22;6664;52.514;13.440;2022-08-20T06:59:27;20.80;99.90
13198;DHT22;6664;52.514;13.440;2022-08-20T07:01:56;20.90;99.90
13198;DHT22;6664;52.514;13.440;2022-08-20T07:04:25;21.00;99.90
13198;DHT22;6664;52.514;13.440;2022-08-20T07:06:57;21.00;99.90
13198;DHT22;6664;52.514;13.440;2022-08-20T07:09:25;20.80;99.90
13198;DHT22;6664;52.514;13.440;2022-08-20T07:11:52;20.80;99.90
13198;DHT22;6664;52.514;13.440;2022-08-20T07:14:19;20.80;99.90
13198;DHT22;6664;52.514;13.440;2022-08-20T07:16:47;20.80;99.90
13198;DHT22;6664;52.514;13.440;2022-08-20T07:19:15;20.80;99.90
13198;DHT22;6664;52.514;13.440;2022-08-20T07:21:42;20.80;99.90
13198;DHT22;6664;52.514;13.440;2022-08-20T07:24:09;20.90;99.90
13198;DHT22;6664;52.514;13.440;2022-08-20T07:26:38;21.00;99.90
13198;DHT22;6664;52.514;13.440;2022-08-20T07:29:05;20.90;99.90
13198;DHT22;6664;52.514;13.440;2022-08-20T07:31:32;20.80;99.90
13198;DHT22;6664;52.514;13.440;2022-08-20T07:34:17;20.80;99.90
13198;DHT22;6664;52.514;13.440;2022-08-20T07:36:45;20.70;99.90
13198;DHT22;6664;52.514;13.440;2022-08-20T07:39:14;20.90;99.90
13198;DHT22;6664;52.514;13.440;2022-08-20T07:41:45;20.90;99.90
13198;DHT22;6664;52.514;13.440;2022-08-20T07:44:29;20.90;99.90
13198;DHT22;6664;52.514;13.440;2022-08-20T07:46:59;20.80;99.90
13198;DHT22;6664;52.514;13.440;2022-08-20T07:49:30;20.70;99.90
13198;DHT22;6664;52.514;13.440;2022-08-20T07:51:59;20.80;99.90
13198;DHT22;6664;52.514;13.440;2022-08-20T07:54:25;20.60;99.90
13198;DHT22;6664;52.514;13.440;2022-08-20T07:56:59;20.70;99.90
13198;DHT22;6664;52.514;13.440;2022-08-20T07:59:29;20.60;99.90
13198;DHT22;6664;52.514;13.440;2022-08-20T08:01:56;20.60;99.90
13198;DHT22;6664;52.514;13.440;2022-08-20T08:04:24;20.70;99.90
13198;DHT22;6664;52.514;13.440;2022-08-20T08:06:54;20.70;99.90
13198;DHT22;6664;52.514;13.440;2022-08-20T08:09:26;20.80;99.90
13198;DHT22;6664;52.514;13.440;2022-08-20T08:11:55;20.90;99.90
13198;DHT22;6664;52.514;13.440;2022-08-20T08:14:26;21.00;99.90
13198;DHT22;6664;52.514;13.440;2022-08-20T08:17:02;21.30;99.90
13198;DHT22;6664;52.514;13.440;2022-08-20T08:19:36;21.30;99.90
13198;DHT22;6664;52.514;13.440;2022-08-20T08:22:09;21.20;99.90
13198;DHT22;6664;52.514;13.440;2022-08-20T08:24:44;21.20;99.90
13198;DHT22;6664;52.514;13.440;2022-08-20T08:27:23;21.30;99.90
13198;DHT22;6664;52.514;13.440;2022-08-20T08:29:50;21.10;99.90
13198;DHT22;6664;52.514;13.440;2022-08-20T08:32:16;21.10;99.90
13198;DHT22;6664;52.514;13.440;2022-08-20T08:34:43;21.10;99.90
13198;DHT22;6664;52.514;13.440;2022-08-20T08:37:15;21.20;99.90
13198;DHT22;6664;52.514;13.440;2022-08-20T08:39:44;21.20;99.90
13198;DHT22;6664;52.514;13.440;2022-08-20T08:45:06;21.10;99.90
13198;DHT22;6664;52.514;13.440;2022-08-20T08:47:36;21.20;99.90
13198;DHT22;6664;52.514;13.440;2022-08-20T08:50:05;21.20;99.90
13198;DHT22;6664;52.514;13.440;2022-08-20T08:52:36;21.20;99.90
13198;DHT22;6664;52.514;13.440;2022-08-20T08:55:10;21.40;99.90
13198;DHT22;6664;52.514;13.440;2022-08-20T08:57:38;21.50;99.90
13198;DHT22;6664;52.514;13.440;2022-08-20T09:00:15;21.60;99.90
13198;DHT22;6664;52.514;13.440;2022-08-20T09:03:01;21.80;99.90
13198;DHT22;6664;52.514;13.440;2022-08-20T09:05:48;21.80;99.90
13198;DHT22;6664;52.514;13.440;2022-08-20T09:08:18;21.70;99.90
13198;DHT22;6664;52.514;13.440;2022-08-20T09:10:49;21.90;99.90
13198;DHT22;6664;52.514;13.440;2022-08-20T09:13:16;22.00;99.90
13198;DHT22;6664;52.514;13.440;2022-08-20T09:15:43;22.10;99.90
13198;DHT22;6664;52.514;13.440;2022-08-20T09:18:10;22.10;99.40
13198;DHT22;6664;52.514;13.440;2022-08-20T09:20:39;22.20;99.20
13198;DHT22;6664;52.514;13.440;2022-08-20T09:23:06;22.20;99.00
13198;DHT22;6664;52.514;13.440;2022-08-20T09:25:33;22.70;98.80
13198;DHT22;6664;52.514;13.440;2022-08-20T09:28:03;22.80;98.20
13198;DHT22;6664;52.514;13.440;2022-08-20T09:30:30;22.70;97.70
13198;DHT22;6664;52.514;13.440;2022-08-20T09:32:59;22.80;97.40
13198;DHT22;6664;52.514;13.440;2022-08-20T09:35:27;22.80;97.30
13198;DHT22;6664;52.514;13.440;2022-08-20T09:37:54;22.70;97.00
13198;DHT22;6664;52.514;13.440;2022-08-20T09:40:21;22.70;96.90
13198;DHT22;6664;52.514;13.440;2022-08-20T09:42:49;22.60;97.30
13198;DHT22;6664;52.514;13.440;2022-08-20T09:45:17;22.70;97.20
13198;DHT22;6664;52.514;13.440;2022-08-20T09:47:49;22.60;97.30
13198;DHT22;6664;52.514;13.440;2022-08-20T09:50:37;22.40;98.00
13198;DHT22;6664;52.514;13.440;2022-08-20T09:53:06;22.40;98.60
13198;DHT22;6664;52.514;13.440;2022-08-20T09:55:39;22.40;98.30
13198;DHT22;6664;52.514;13.440;2022-08-20T10:00:47;22.20;99.00
13198;DHT22;6664;52.514;13.440;2022-08-20T10:03:17;22.30;99.00
13198;DHT22;6664;52.514;13.440;2022-08-20T10:05:44;22.20;98.00
13198;DHT22;6664;52.514;13.440;2022-08-20T10:08:14;22.30;98.60
13198;DHT22;6664;52.514;13.440;2022-08-20T10:10:41;22.50;98.00
13198;DHT22;6664;52.514;13.440;2022-08-20T10:13:10;22.70;97.30
13198;DHT22;6664;52.514;13.440;2022-08-20T10:15:43;23.00;96.80
13198;DHT22;6664;52.514;13.440;2022-08-20T10:18:10;22.90;96.10
13198;DHT22;6664;52.514;13.440;2022-08-20T10:20:38;23.10;95.90
13198;DHT22;6664;52.514;13.440;2022-08-20T10:23:05;22.90;94.50
13198;DHT22;6664;52.514;13.440;2022-08-20T10:25:32;22.70;94.40
13198;DHT22;6664;52.514;13.440;2022-08-20T10:28:01;23.00;94.40
13198;DHT22;6664;52.514;13.440;2022-08-20T10:30:31;22.90;93.90
13198;DHT22;6664;52.514;13.440;2022-08-20T10:32:58;22.90;94.40
13198;DHT22;6664;52.514;13.440;2022-08-20T10:35:25;22.90;93.60
13198;DHT22;6664;52.514;13.440;2022-08-20T10:37:51;23.00;92.80
13198;DHT22;6664;52.514;13.440;2022-08-20T10:40:21;23.20;92.10
13198;DHT22;6664;52.514;13.440;2022-08-20T10:42:50;23.10;91.10
13198;DHT22;6664;52.514;13.440;2022-08-20T10:45:17;23.60;91.30
13198;DHT22;6664;52.514;13.440;2022-08-20T10:47:44;23.80;90.40
13198;DHT22;6664;52.514;13.440;2022-08-20T10:50:14;23.90;90.40
13198;DHT22;6664;52.514;13.440;2022-08-20T10:52:41;24.00;90.40
13198;DHT22;6664;52.514;13.440;2022-08-20T10:55:09;23.80;89.10
13198;DHT22;6664;52.514;13.440;2022-08-20T10:57:38;23.90;88.90
13198;DHT22;6664;52.514;13.440;2022-08-20T11:00:06;24.30;87.20
13198;DHT22;6664;52.514;13.440;2022-08-20T11:02:36;24.50;86.30
13198;DHT22;6664;52.514;13.440;2022-08-20T11:05:04;24.40;85.40
13198;DHT22;6664;52.514;13.440;2022-08-20T11:07:39;24.10;86.00
13198;DHT22;6664;52.514;13.440;2022-08-20T11:10:23;24.20;86.40
13198;DHT22;6664;52.514;13.440;2022-08-20T11:12:51;24.00;85.00
13198;DHT22;6664;52.514;13.440;2022-08-20T11:15:18;23.70;85.20
13198;DHT22;6664;52.514;13.440;2022-08-20T11:17:48;23.80;85.70
13198;DHT22;6664;52.514;13.440;2022-08-20T11:20:17;23.80;85.00
13198;DHT22;6664;52.514;13.440;2022-08-20T11:22:47;24.00;85.30
13198;DHT22;6664;52.514;13.440;2022-08-20T11:25:14;23.70;85.30
13198;DHT22;6664;52.514;13.440;2022-08-20T11:27:44;23.60;83.40
13198;DHT22;6664;52.514;13.440;2022-08-20T11:30:21;23.50;83.50
13198;DHT22;6664;52.514;13.440;2022-08-20T11:32:48;23.40;83.30
13198;DHT22;6664;52.514;13.440;2022-08-20T11:35:15;23.50;83.60
13198;DHT22;6664;52.514;13.440;2022-08-20T11:38:07;23.90;82.70
13198;DHT22;6664;52.514;13.440;2022-08-20T11:40:34;23.70;80.50
13198;DHT22;6664;52.514;13.440;2022-08-20T11:43:01;23.60;81.00
13198;DHT22;6664;52.514;13.440;2022-08-20T11:45:48;23.50;82.00
13198;DHT22;6664;52.514;13.440;2022-08-20T11:48:16;23.40;81.10
13198;DHT22;6664;52.514;13.440;2022-08-20T11:50:44;23.20;83.10
13198;DHT22;6664;52.514;13.440;2022-08-20T11:53:17;23.20;82.40
13198;DHT22;6664;52.514;13.440;2022-08-20T11:55:48;23.20;82.50
13198;DHT22;6664;52.514;13.440;2022-08-20T11:58:15;23.30;81.60
13198;DHT22;6664;52.514;13.440;2022-08-20T12:00:44;23.30;80.90
13198;DHT22;6664;52.514;13.440;2022-08-20T12:03:11;23.50;80.20
13198;DHT22;6664;52.514;13.440;2022-08-20T12:05:42;23.50;80.90
13198;DHT22;6664;52.514;13.440;2022-08-20T12:08:12;23.70;80.30
13198;DHT22;6664;52.514;13.440;2022-08-20T12:10:54;23.50;80.10
13198;DHT22;6664;52.514;13.440;2022-08-20T12:13:22;23.40;80.00
13198;DHT22;6664;52.514;13.440;2022-08-20T12:16:11;23.40;80.10
13198;DHT22;6664;52.514;13.440;2022-08-20T12:18:38;23.70;80.40
13198;DHT22;6664;52.514;13.440;2022-08-20T12:21:07;23.50;80.10
13198;DHT22;6664;52.514;13.440;2022-08-20T12:23:34;23.70;80.40
13198;DHT22;6664;52.514;13.440;2022-08-20T12:26:04;24.00;80.00
13198;DHT22;6664;52.514;13.440;2022-08-20T12:28:31;23.70;80.70
13198;DHT22;6664;52.514;13.440;2022-08-20T12:30:58;23.60;81.50
13198;DHT22;6664;52.514;13.440;2022-08-20T12:33:27;23.70;82.00
13198;DHT22;6664;52.514;13.440;2022-08-20T12:35:57;23.80;81.30
13198;DHT22;6664;52.514;13.440;2022-08-20T12:38:23;23.90;81.50
13198;DHT22;6664;52.514;13.440;2022-08-20T12:40:50;23.70;80.60
13198;DHT22;6664;52.514;13.440;2022-08-20T12:43:17;23.80;80.40
13198;DHT22;6664;52.514;13.440;2022-08-20T12:45:50;24.00;80.30
13198;DHT22;6664;52.514;13.440;2022-08-20T12:48:17;24.00;79.40
13198;DHT22;6664;52.514;13.440;2022-08-20T12:50:48;23.70;79.00
13198;DHT22;6664;52.514;13.440;2022-08-20T12:53:18;23.80;80.00
13198;DHT22;6664;52.514;13.440;2022-08-20T12:55:45;23.70;80.30
13198;DHT22;6664;52.514;13.440;2022-08-20T12:58:12;23.60;80.10
13198;DHT22;6664;52.514;13.440;2022-08-20T13:00:41;23.60;79.50
13198;DHT22;6664;52.514;13.440;2022-08-20T13:03:16;23.50;79.60
13198;DHT22;6664;52.514;13.440;2022-08-20T13:05:43;23.50;80.10
13198;DHT22;6664;52.514;13.440;2022-08-20T13:08:11;23.10;79.80
13198;DHT22;6664;52.514;13.440;2022-08-20T13:10:41;23.00;81.60
13198;DHT22;6664;52.514;13.440;2022-08-20T13:13:11;22.80;81.80
13198;DHT22;6664;52.514;13.440;2022-08-20T13:15:39;22.80;81.40
13198;DHT22;6664;52.514;13.440;2022-08-20T13:18:08;22.60;82.20
13198;DHT22;6664;52.514;13.440;2022-08-20T13:20:36;22.70;83.00
13198;DHT22;6664;52.514;13.440;2022-08-20T13:23:06;22.70;82.90
13198;DHT22;6664;52.514;13.440;2022-08-20T13:25:33;22.60;83.10
13198;DHT22;6664;52.514;13.440;2022-08-20T13:28:03;22.60;83.80
13198;DHT22;6664;52.514;13.440;2022-08-20T13:30:33;22.50;84.40
13198;DHT22;6664;52.514;13.440;2022-08-20T13:33:00;22.50;84.90
13198;DHT22;6664;52.514;13.440;2022-08-20T13:35:28;22.20;85.60
13198;DHT22;6664;52.514;13.440;2022-08-20T13:37:55;22.20;86.40
13198;DHT22;6664;52.514;13.440;2022-08-20T13:40:22;22.10;87.40
13198;DHT22;6664;52.514;13.440;2022-08-20T13:42:49;22.00;88.20
13198;DHT22;6664;52.514;13.440;2022-08-20T13:45:20;22.10;89.90
13198;DHT22;6664;52.514;13.440;2022-08-20T13:47:51;21.90;90.10
13198;DHT22;6664;52.514;13.440;2022-08-20T13:50:21;21.70;90.50
13198;DHT22;6664;52.514;13.440;2022-08-20T13:52:48;21.60;91.00
13198;DHT22;6664;52.514;13.440;2022-08-20T13:55:18;21.50;91.60
13198;DHT22;6664;52.514;13.440;2022-08-20T13:57:45;21.50;92.10
13198;DHT22;6664;52.514;13.440;2022-08-20T14:00:23;21.40;92.50
13198;DHT22;6664;52.514;13.440;2022-08-20T14:02:58;21.40;93.20
13198;DHT22;6664;52.514;13.440;2022-08-20T14:05:27;21.40;93.70
13198;DHT22;6664;52.514;13.440;2022-08-20T14:07:55;21.40;93.50
13198;DHT22;6664;52.514;13.440;2022-08-20T14:10:24;21.30;93.80
13198;DHT22;6664;52.514;13.440;2022-08-20T14:12:57;21.30;94.70
13198;DHT22;6664;52.514;13.440;2022-08-20T14:15:24;21.30;94.70
13198;DHT22;6664;52.514;13.440;2022-08-20T14:17:53;21.40;95.00
13198;DHT22;6664;52.514;13.440;2022-08-20T14:20:27;21.40;95.20
13198;DHT22;6664;52.514;13.440;2022-08-20T14:22:58;21.50;95.50
13198;DHT22;6664;52.514;13.440;2022-08-20T14:25:26;21.60;95.50
13198;DHT22;6664;52.514;13.440;2022-08-20T14:27:55;21.60;95.20
13198;DHT22;6664;52.514;13.440;2022-08-20T14:30:26;21.80;96.00
13198;DHT22;6664;52.514;13.440;2022-08-20T14:32:56;21.70;95.00
13198;DHT22;6664;52.514;13.440;2022-08-20T14:35:23;21.80;95.10
13198;DHT22;6664;52.514;13.440;2022-08-20T14:37:53;21.90;94.90
13198;DHT22;6664;52.514;13.440;2022-08-20T14:40:24;21.90;94.70
13198;DHT22;6664;52.514;13.440;2022-08-20T14:42:51;22.10;95.10
13198;DHT22;6664;52.514;13.440;2022-08-20T14:45:19;22.30;94.30
13198;DHT22;6664;52.514;13.440;2022-08-20T14:47:51;22.40;94.10
13198;DHT22;6664;52.514;13.440;2022-08-20T14:50:27;22.40;94.10
13198;DHT22;6664;52.514;13.440;2022-08-20T14:52:57;22.50;93.90
13198;DHT22;6664;52.514;13.440;2022-08-20T14:55:27;22.30;93.80
13198;DHT22;6664;52.514;13.440;2022-08-20T14:57:54;22.20;94.20
13198;DHT22;6664;52.514;13.440;2022-08-20T15:00:24;22.30;94.30
13198;DHT22;6664;52.514;13.440;2022-08-20T15:02:51;22.20;94.20
13198;DHT22;6664;52.514;13.440;2022-08-20T15:05:19;22.00;94.50
13198;DHT22;6664;52.514;13.440;2022-08-20T15:07:50;22.00;94.60
13198;DHT22;6664;52.514;13.440;2022-08-20T15:10:23;21.90;94.90
13198;DHT22;6664;52.514;13.440;2022-08-20T15:12:52;21.90;95.10
13198;DHT22;6664;52.514;13.440;2022-08-20T15:15:20;21.90;95.00
13198;DHT22;6664;52.514;13.440;2022-08-20T15:17:50;21.80;95.10
13198;DHT22;6664;52.514;13.440;2022-08-20T15:20:20;21.70;95.40
13198;DHT22;6664;52.514;13.440;2022-08-20T15:22:47;21.60;95.60
13198;DHT22;6664;52.514;13.440;2022-08-20T15:25:20;21.60;95.90
13198;DHT22;6664;52.514;13.440;2022-08-20T15:27:47;21.60;95.90
13198;DHT22;6664;52.514;13.440;2022-08-20T15:30:19;21.60;96.20
13198;DHT22;6664;52.514;13.440;2022-08-20T15:32:47;21.50;96.50
13198;DHT22;6664;52.514;13.440;2022-08-20T15:35:21;21.50;96.50
13198;DHT22;6664;52.514;13.440;2022-08-20T15:37:51;21.50;96.40
13198;DHT22;6664;52.514;13.440;2022-08-20T15:40:22;21.50;96.30
13198;DHT22;6664;52.514;13.440;2022-08-20T15:42:55;21.50;96.90
13198;DHT22;6664;52.514;13.440;2022-08-20T15:45:22;21.50;96.90
13198;DHT22;6664;52.514;13.440;2022-08-20T15:54:22;21.50;97.00
13198;DHT22;6664;52.514;13.440;2022-08-20T15:58:02;21.50;96.60
13198;DHT22;6664;52.514;13.440;2022-08-20T16:00:13;21.50;97.10
13198;DHT22;6664;52.514;13.440;2022-08-20T16:03:19;21.60;97.10
13198;DHT22;6664;52.514;13.440;2022-08-20T16:08:42;21.50;97.10
13198;DHT22;6664;52.514;13.440;2022-08-20T16:14:23;21.40;97.10
13198;DHT22;6664;52.514;13.440;2022-08-20T16:17:02;21.40;97.40